Time;durP1;ratioP1;P1;durP2;ratioP2;P2;SDS_P1;SDS_P2;PMS_P1;PMS_P2;Temp;Humidity;BMP_temperature;BMP_pressure;BME280_temperature;BME280_humidity;BME280_pressure;Samples;Min_cycle;Max_cycle;Signal;HPM_P1;HPM_P2
2023/05/17 00:00:58;;;;;;;21.83;4.25;;;8.30;99.90;;;;;;4999199;28;20058;-81
2023/05/17 00:03:24;;;;;;;19.70;4.10;;;8.20;99.90;;;;;;5012838;28;20046;-81
2023/05/17 00:05:50;;;;;;;20.73;4.28;;;8.20;99.90;;;;;;5014133;28;20068;-81
2023/05/17 00:08:16;;;;;;;20.45;4.70;;;8.10;99.90;;;;;;4998109;28;20042;-81
2023/05/17 00:10:42;;;;;;;20.92;4.50;;;8.10;99.90;;;;;;5000701;28;20052;-82
2023/05/17 00:13:08;;;;;;;29.02;4.20;;;8.00;99.90;;;;;;4980226;28;20050;-81
2023/05/17 00:15:33;;;;;;;19.23;3.85;;;8.00;99.90;;;;;;4995146;28;20042;-81
2023/05/17 00:17:59;;;;;;;20.42;3.88;;;7.90;99.90;;;;;;4977842;28;20481;-81
2023/05/17 00:20:24;;;;;;;25.92;4.13;;;7.90;99.90;;;;;;4979730;28;20137;-82
2023/05/17 00:22:50;;;;;;;24.02;4.53;;;7.90;99.90;;;;;;4968248;28;20442;-81
2023/05/17 00:25:15;;;;;;;22.42;4.25;;;7.80;99.90;;;;;;4966692;28;20038;-81
2023/05/17 00:27:41;;;;;;;18.50;3.97;;;7.90;99.90;;;;;;4981314;28;20440;-81
2023/05/17 00:30:07;;;;;;;19.75;4.50;;;7.90;99.90;;;;;;4984485;28;20117;-81
2023/05/17 00:32:33;;;;;;;20.55;5.15;;;7.90;99.90;;;;;;4967276;28;20046;-81
2023/05/17 00:34:59;;;;;;;17.83;4.32;;;7.90;99.90;;;;;;4985212;28;20042;-81
2023/05/17 00:37:24;;;;;;;21.15;3.67;;;7.80;99.90;;;;;;4977623;28;20121;-81
2023/05/17 00:39:51;;;;;;;19.40;4.38;;;7.80;99.90;;;;;;4980226;28;20440;-81
2023/05/17 00:42:17;;;;;;;19.35;3.92;;;7.80;99.90;;;;;;4982325;28;20030;-81
2023/05/17 00:44:43;;;;;;;17.05;4.45;;;7.70;99.90;;;;;;4977911;28;20079;-81
2023/05/17 00:47:08;;;;;;;19.83;4.40;;;7.70;99.90;;;;;;4991327;28;20273;-82
2023/05/17 00:49:34;;;;;;;22.45;4.70;;;7.70;99.90;;;;;;4978673;28;20041;-81
2023/05/17 00:52:00;;;;;;;28.30;4.93;;;7.70;99.90;;;;;;4982091;28;20107;-81
2023/05/17 00:54:26;;;;;;;18.15;4.13;;;7.60;99.90;;;;;;4982607;28;20042;-81
2023/05/17 00:56:53;;;;;;;15.52;3.78;;;7.70;99.90;;;;;;4979050;28;20064;-81
2023/05/17 00:59:21;;;;;;;22.10;4.20;;;7.80;99.90;;;;;;4982467;28;20088;-81
2023/05/17 01:01:47;;;;;;;17.98;4.55;;;7.80;99.90;;;;;;4987083;28;20042;-81
2023/05/17 01:04:13;;;;;;;15.00;4.28;;;7.80;99.90;;;;;;4997035;28;20334;-81
2023/05/17 01:06:39;;;;;;;20.23;4.28;;;7.90;99.90;;;;;;4968566;28;20080;-81
2023/05/17 01:09:09;;;;;;;20.75;4.07;;;8.00;99.90;;;;;;4977821;28;20084;-81
2023/05/17 01:12:02;;;;;;;18.90;4.22;;;8.10;99.90;;;;;;4985122;28;20389;-81
2023/05/17 01:14:52;;;;;;;21.35;4.40;;;8.10;99.90;;;;;;4976252;28;20046;-82
2023/05/17 01:17:34;;;;;;;20.30;3.97;;;8.20;99.90;;;;;;4993603;28;20124;-82
2023/05/17 01:20:07;;;;;;;20.30;4.13;;;8.20;99.90;;;;;;4990914;28;20050;-82
2023/05/17 01:23:07;;;;;;;25.17;4.70;;;8.30;99.90;;;;;;4977161;28;20046;-82
2023/05/17 01:25:45;;;;;;;31.52;4.38;;;8.30;99.90;;;;;;4993955;28;20045;-81
2023/05/17 01:28:11;;;;;;;13.32;4.28;;;8.20;99.90;;;;;;4996920;28;20342;-82
2023/05/17 01:30:38;;;;;;;23.55;3.92;;;8.20;99.90;;;;;;4993649;28;20045;-81
2023/05/17 01:33:05;;;;;;;20.42;4.55;;;8.20;99.90;;;;;;4995253;28;20052;-81
2023/05/17 01:35:31;;;;;;;29.50;5.13;;;8.10;99.90;;;;;;4990875;28;20128;-81
2023/05/17 01:37:56;;;;;;;23.15;4.30;;;8.10;99.90;;;;;;4999688;28;20117;-81
2023/05/17 01:40:23;;;;;;;22.25;4.03;;;8.10;99.90;;;;;;4990234;28;20112;-81
2023/05/17 01:42:54;;;;;;;22.20;4.50;;;8.00;99.90;;;;;;4979040;28;20038;-81
2023/05/17 01:45:27;;;;;;;17.95;4.18;;;7.90;99.90;;;;;;4990893;28;20120;-81
2023/05/17 01:48:05;;;;;;;24.05;4.05;;;7.90;99.90;;;;;;4980126;28;20565;-81
2023/05/17 01:50:33;;;;;;;17.75;3.92;;;7.80;99.90;;;;;;4991672;28;20609;-81
2023/05/17 01:53:06;;;;;;;20.40;3.97;;;7.70;99.90;;;;;;4995123;28;20104;-81
2023/05/17 01:55:54;;;;;;;22.70;4.40;;;7.70;99.90;;;;;;4992207;28;20037;-81
2023/05/17 01:58:24;;;;;;;15.35;4.15;;;7.70;99.90;;;;;;4986622;28;20495;-82
2023/05/17 02:00:52;;;;;;;18.02;4.13;;;7.60;99.90;;;;;;4973241;28;20696;-81
2023/05/17 02:03:19;;;;;;;17.77;3.28;;;7.60;99.90;;;;;;4992438;28;20057;-82
2023/05/17 02:05:45;;;;;;;20.02;4.53;;;7.60;99.90;;;;;;4993432;28;20039;-81
2023/05/17 02:08:11;;;;;;;19.52;3.67;;;7.60;99.90;;;;;;4992738;28;20469;-81
2023/05/17 02:10:36;;;;;;;21.45;4.10;;;7.50;99.90;;;;;;4978045;28;20042;-81
2023/05/17 02:13:02;;;;;;;16.02;4.00;;;7.50;99.90;;;;;;4980697;28;20293;-81
2023/05/17 02:15:28;;;;;;;18.67;3.40;;;7.50;99.90;;;;;;4979177;28;20052;-81
2023/05/17 02:17:56;;;;;;;15.10;4.00;;;7.40;99.90;;;;;;4995116;28;20033;-81
2023/05/17 02:20:22;;;;;;;18.08;4.07;;;7.40;99.90;;;;;;4977331;28;20045;-81
2023/05/17 02:22:48;;;;;;;23.00;3.72;;;7.30;99.90;;;;;;5002652;28;20038;-81
2023/05/17 02:25:13;;;;;;;15.80;3.95;;;7.30;99.90;;;;;;4993555;28;20041;-81
2023/05/17 02:27:39;;;;;;;13.70;3.33;;;7.30;99.90;;;;;;4994475;28;20053;-82
2023/05/17 02:30:06;;;;;;;17.48;3.95;;;7.30;99.90;;;;;;4995852;28;20106;-82
2023/05/17 02:32:32;;;;;;;16.02;3.40;;;7.30;99.90;;;;;;4995597;28;20041;-81
2023/05/17 02:35:00;;;;;;;16.20;3.50;;;7.30;99.90;;;;;;5012918;28;20384;-81
2023/05/17 02:37:26;;;;;;;16.63;3.78;;;7.30;99.90;;;;;;5003877;28;20026;-80
2023/05/17 02:39:52;;;;;;;14.82;3.35;;;7.30;99.90;;;;;;4983533;28;20080;-81
2023/05/17 02:42:17;;;;;;;16.40;3.78;;;7.20;99.90;;;;;;4994383;28;20038;-81
2023/05/17 02:44:51;;;;;;;12.65;3.13;;;7.20;99.90;;;;;;4998606;28;20059;-81
2023/05/17 02:47:19;;;;;;;14.65;3.63;;;7.30;99.90;;;;;;4994811;28;20110;-81
2023/05/17 02:49:46;;;;;;;14.65;3.05;;;7.30;99.90;;;;;;4985960;28;20622;-81
2023/05/17 02:52:11;;;;;;;13.38;3.67;;;7.30;99.90;;;;;;4980227;28;20412;-82
2023/05/17 02:54:37;;;;;;;16.25;3.47;;;7.30;99.90;;;;;;4987537;28;20668;-82
2023/05/17 02:57:03;;;;;;;13.18;3.22;;;7.40;99.90;;;;;;4987591;28;20263;-81
2023/05/17 02:59:28;;;;;;;14.05;3.30;;;7.40;99.90;;;;;;5014520;28;20034;-81
2023/05/17 03:01:57;;;;;;;18.38;3.80;;;7.50;99.90;;;;;;5014638;28;20072;-81
2023/05/17 03:04:23;;;;;;;10.57;3.00;;;7.50;99.90;;;;;;4996619;28;20045;-82
2023/05/17 03:06:49;;;;;;;18.38;3.47;;;7.50;99.90;;;;;;5003683;28;20388;-82
2023/05/17 03:09:15;;;;;;;15.40;3.67;;;7.50;99.90;;;;;;5001664;28;20041;-81
2023/05/17 03:11:41;;;;;;;11.05;3.15;;;7.50;99.90;;;;;;4986393;28;20339;-81
2023/05/17 03:14:06;;;;;;;13.85;3.65;;;7.50;99.90;;;;;;4997373;28;20084;-81
2023/05/17 03:16:32;;;;;;;16.20;2.97;;;7.50;99.90;;;;;;4996862;28;20045;-81
2023/05/17 03:18:58;;;;;;;15.15;3.33;;;7.60;99.90;;;;;;5000946;28;20115;-82
2023/05/17 03:21:23;;;;;;;17.92;3.10;;;7.60;99.90;;;;;;4994933;28;20053;-81
2023/05/17 03:23:49;;;;;;;10.02;2.85;;;7.60;99.90;;;;;;5001260;28;20038;-82
2023/05/17 03:26:15;;;;;;;10.48;2.63;;;7.60;99.90;;;;;;5008599;28;20373;-81
2023/05/17 03:28:40;;;;;;;17.33;2.88;;;7.70;99.90;;;;;;4996700;28;20037;-82
2023/05/17 03:31:06;;;;;;;11.95;3.33;;;7.70;99.90;;;;;;4980813;28;20130;-81
2023/05/17 03:33:32;;;;;;;19.58;3.88;;;7.70;99.90;;;;;;5011279;28;20539;-82
2023/05/17 03:35:57;;;;;;;12.32;2.85;;;7.70;99.90;;;;;;4980455;28;20067;-82
2023/05/17 03:38:23;;;;;;;9.93;2.45;;;7.60;99.90;;;;;;4983952;28;20095;-81
2023/05/17 03:40:51;;;;;;;13.73;3.05;;;7.60;99.90;;;;;;4996873;28;20049;-81
2023/05/17 03:43:16;;;;;;;12.60;3.85;;;7.60;99.90;;;;;;4982590;28;20041;-81
2023/05/17 03:45:42;;;;;;;14.80;3.05;;;7.50;99.90;;;;;;4995240;28;20052;-82
2023/05/17 03:48:08;;;;;;;9.63;2.85;;;7.50;99.90;;;;;;4996729;28;20099;-81
2023/05/17 03:50:36;;;;;;;11.63;2.90;;;7.60;99.90;;;;;;4986105;28;20361;-81
2023/05/17 03:53:02;;;;;;;11.43;2.45;;;7.50;99.90;;;;;;5019542;28;20038;-81
2023/05/17 03:55:30;;;;;;;13.75;3.30;;;7.50;99.90;;;;;;4983432;28;20050;-82
2023/05/17 03:57:56;;;;;;;8.57;2.58;;;7.60;99.90;;;;;;4980966;28;20069;-81
2023/05/17 04:00:22;;;;;;;9.45;2.30;;;7.50;99.90;;;;;;4988612;28;20044;-81
2023/05/17 04:02:50;;;;;;;13.00;2.50;;;7.60;99.90;;;;;;4996401;28;20233;-81
2023/05/17 04:05:16;;;;;;;11.07;2.30;;;7.60;99.90;;;;;;4981294;28;20583;-81
2023/05/17 04:07:41;;;;;;;15.75;2.70;;;7.60;99.90;;;;;;5018132;28;20037;-81
2023/05/17 04:10:08;;;;;;;12.23;2.47;;;7.60;99.90;;;;;;4994624;28;20121;-81
2023/05/17 04:12:34;;;;;;;13.20;2.40;;;7.70;99.90;;;;;;4954204;28;1209437;-81
2023/05/17 04:15:00;;;;;;;15.02;2.65;;;7.80;99.90;;;;;;5000797;28;20512;-81
2023/05/17 04:17:26;;;;;;;8.93;2.13;;;7.90;99.90;;;;;;4999852;28;20064;-81
2023/05/17 04:19:52;;;;;;;9.30;2.00;;;7.80;99.90;;;;;;5012301;28;20045;-81
2023/05/17 04:22:19;;;;;;;12.43;2.40;;;7.80;99.90;;;;;;4983808;28;20059;-81
2023/05/17 04:24:48;;;;;;;9.52;2.30;;;7.70;99.90;;;;;;4994235;28;20050;-81
2023/05/17 04:27:14;;;;;;;7.22;2.35;;;7.70;99.90;;;;;;5000358;28;20060;-81
2023/05/17 04:29:40;;;;;;;8.23;2.53;;;7.70;99.90;;;;;;4980215;28;20103;-81
2023/05/17 04:32:07;;;;;;;11.98;2.72;;;7.70;99.90;;;;;;4979881;28;20441;-81
2023/05/17 04:34:32;;;;;;;6.68;2.13;;;7.80;99.90;;;;;;4998222;28;20116;-81
2023/05/17 04:36:58;;;;;;;11.10;1.83;;;7.90;99.90;;;;;;5000536;28;20494;-81
2023/05/17 04:39:24;;;;;;;10.02;1.90;;;7.90;99.90;;;;;;5003249;28;20070;-81
2023/05/17 04:41:50;;;;;;;9.25;2.00;;;8.00;99.90;;;;;;4994859;28;20053;-81
2023/05/17 04:44:16;;;;;;;9.57;1.92;;;8.00;99.90;;;;;;4998285;28;20107;-81
2023/05/17 04:46:45;;;;;;;12.82;2.13;;;8.00;99.90;;;;;;4979551;28;20052;-81
2023/05/17 04:49:11;;;;;;;11.85;2.17;;;8.10;99.90;;;;;;5015044;28;20660;-81
2023/05/17 04:51:36;;;;;;;9.18;1.92;;;8.20;99.90;;;;;;5013764;28;20037;-82
2023/05/17 04:54:05;;;;;;;11.93;2.60;;;8.20;99.90;;;;;;5012726;28;20065;-81
2023/05/17 04:56:32;;;;;;;7.93;2.05;;;8.30;99.90;;;;;;4995078;28;20063;-81
2023/05/17 04:58:57;;;;;;;9.95;1.90;;;8.30;99.90;;;;;;4996813;28;20068;-81
2023/05/17 05:01:25;;;;;;;9.82;2.00;;;8.40;99.90;;;;;;4981507;28;20500;-81
2023/05/17 05:03:51;;;;;;;10.98;2.08;;;8.40;99.90;;;;;;4996693;28;20046;-81
2023/05/17 05:06:17;;;;;;;9.25;2.33;;;8.70;99.90;;;;;;5001314;28;20396;-81
2023/05/17 05:08:43;;;;;;;8.40;2.83;;;8.70;99.90;;;;;;4984161;28;20132;-82
2023/05/17 05:11:09;;;;;;;7.13;1.67;;;8.70;99.90;;;;;;4982217;28;20455;-82
2023/05/17 05:13:37;;;;;;;10.38;1.75;;;8.70;99.90;;;;;;4984070;28;20052;-81
2023/05/17 05:16:06;;;;;;;9.48;1.45;;;8.70;99.90;;;;;;5014155;28;20898;-81
2023/05/17 05:18:32;;;;;;;9.52;1.70;;;8.60;99.90;;;;;;4999792;28;20030;-82
2023/05/17 05:20:59;;;;;;;8.98;1.77;;;8.60;1.00;;;;;;4978744;28;20105;-81
2023/05/17 05:23:24;;;;;;;10.45;2.25;;;8.60;99.90;;;;;;4999418;28;20184;-82
2023/05/17 05:25:50;;;;;;;11.40;2.03;;;8.50;99.90;;;;;;4996505;28;20132;-81
2023/05/17 05:28:16;;;;;;;12.77;1.95;;;8.60;44.80;;;;;;4984529;28;20456;-82
2023/05/17 05:30:41;;;;;;;7.28;1.60;;;8.60;99.90;;;;;;4980266;28;20065;-81
2023/05/17 05:33:09;;;;;;;9.32;1.55;;;8.70;1.00;;;;;;5017056;28;20103;-81
2023/05/17 05:35:35;;;;;;;6.78;1.92;;;8.80;99.90;;;;;;4978594;28;20048;-81
2023/05/17 05:38:01;;;;;;;4.63;1.30;;;8.80;99.90;;;;;;4996746;28;20046;-81
2023/05/17 05:40:26;;;;;;;8.27;1.80;;;8.90;1.00;;;;;;5010254;28;20045;-82
2023/05/17 05:42:52;;;;;;;8.95;1.90;;;8.90;1.00;;;;;;4997564;28;20037;-81
2023/05/17 05:45:18;;;;;;;7.68;1.73;;;9.00;99.90;;;;;;4984822;28;20076;-82
2023/05/17 05:47:44;;;;;;;11.27;2.50;;;8.90;99.90;;;;;;5017749;28;20498;-81
2023/05/17 05:50:10;;;;;;;8.23;1.73;;;9.20;99.90;;;;;;5000234;28;20041;-81
2023/05/17 05:52:35;;;;;;;11.63;2.20;;;9.20;99.90;;;;;;5016408;28;20037;-81
2023/05/17 05:55:01;;;;;;;12.02;1.75;;;9.10;99.90;;;;;;4999883;28;20063;-81
2023/05/17 05:57:27;;;;;;;10.07;1.98;;;9.20;99.90;;;;;;4979361;28;20107;-82
2023/05/17 05:59:53;;;;;;;8.48;1.95;;;9.30;99.90;;;;;;4994581;28;20037;-81
2023/05/17 06:02:18;;;;;;;7.28;2.75;;;9.30;99.90;;;;;;4978884;28;20057;-81
2023/05/17 06:04:46;;;;;;;8.60;2.22;;;9.40;99.90;;;;;;4996009;28;20162;-82
2023/05/17 06:07:15;;;;;;;16.02;2.65;;;9.60;99.90;;;;;;5012434;28;20045;-82
2023/05/17 06:09:42;;;;;;;12.27;2.00;;;9.80;99.90;;;;;;4993166;28;20121;-82
2023/05/17 06:12:08;;;;;;;8.32;2.03;;;9.70;48.80;;;;;;4979544;28;20054;-81
2023/05/17 06:14:34;;;;;;;11.13;2.38;;;9.60;1.00;;;;;;5012284;28;20460;-81
2023/05/17 06:17:00;;;;;;;13.43;2.38;;;9.70;1.00;;;;;;4977093;28;20052;-82
2023/05/17 06:19:26;;;;;;;9.75;2.67;;;9.60;25.60;;;;;;4994146;28;20408;-81
2023/05/17 06:21:51;;;;;;;16.52;2.60;;;9.60;99.90;;;;;;5011557;28;20033;-81
2023/05/17 06:24:17;;;;;;;11.48;2.65;;;9.60;99.90;;;;;;4983603;28;20045;-81
2023/05/17 06:26:46;;;;;;;15.55;2.95;;;9.40;99.90;;;;;;5011560;28;20042;-81
2023/05/17 06:29:11;;;;;;;15.52;2.75;;;9.50;1.00;;;;;;4982979;28;20100;-81
2023/05/17 06:31:37;;;;;;;11.82;2.38;;;9.90;1.00;;;;;;4980471;28;20720;-81
2023/05/17 06:34:03;;;;;;;12.55;2.72;;;10.00;99.90;;;;;;4977426;28;20037;-82
2023/05/17 06:36:28;;;;;;;10.88;2.50;;;9.90;99.90;;;;;;4982046;28;20041;-82
2023/05/17 06:38:55;;;;;;;13.43;2.78;;;9.90;1.00;;;;;;5012143;28;20480;-81
2023/05/17 06:41:20;;;;;;;9.43;3.30;;;9.90;99.90;;;;;;4978916;28;20142;-81
2023/05/17 06:43:46;;;;;;;14.00;2.83;;;9.80;99.90;;;;;;5011855;28;20042;-81
2023/05/17 06:46:11;;;;;;;11.77;2.60;;;9.80;99.90;;;;;;5005652;28;20448;-81
2023/05/17 06:48:37;;;;;;;7.15;2.05;;;9.70;1.00;;;;;;4995247;28;20456;-82
2023/05/17 06:51:03;;;;;;;12.80;2.67;;;9.70;99.90;;;;;;4994268;28;20051;-82
2023/05/17 06:53:28;;;;;;;11.02;2.80;;;9.60;99.90;;;;;;4991847;28;20046;-82
2023/05/17 06:55:54;;;;;;;15.15;2.75;;;9.50;66.00;;;;;;4992937;28;20061;-82
2023/05/17 06:58:23;;;;;;;17.85;2.45;;;9.50;99.90;;;;;;4991217;28;20133;-83
2023/05/17 07:00:48;;;;;;;17.38;2.97;;;9.50;1.00;;;;;;4980765;28;20204;-81
2023/05/17 07:03:14;;;;;;;10.40;2.78;;;9.60;99.90;;;;;;5006823;28;20275;-81
2023/05/17 07:05:42;;;;;;;13.30;3.08;;;9.50;99.90;;;;;;4985391;28;20140;-82
2023/05/17 07:08:11;;;;;;;17.40;2.90;;;9.60;99.90;;;;;;4998423;28;20148;-84
2023/05/17 07:10:36;;;;;;;13.93;2.80;;;9.60;99.90;;;;;;5014357;28;20124;-81
2023/05/17 07:13:02;;;;;;;13.30;2.75;;;9.70;1.00;;;;;;4980480;28;20122;-82
2023/05/17 07:15:28;;;;;;;13.70;3.60;;;9.70;99.90;;;;;;4990621;28;20045;-81
2023/05/17 07:17:53;;;;;;;12.00;2.85;;;9.70;99.90;;;;;;4996707;28;20038;-81
2023/05/17 07:20:19;;;;;;;11.98;2.63;;;9.80;1.00;;;;;;4995545;28;20241;-81
2023/05/17 07:22:45;;;;;;;16.45;2.90;;;9.90;17.90;;;;;;4980995;28;20033;-82
2023/05/17 07:25:10;;;;;;;13.50;2.53;;;9.80;1.00;;;;;;4976870;28;20278;-82
2023/05/17 07:27:36;;;;;;;19.80;3.30;;;10.00;99.10;;;;;;4990539;28;20143;-82
2023/05/17 07:30:03;;;;;;;7.05;2.00;;;9.80;34.00;;;;;;4992704;28;20044;-81
2023/05/17 07:32:28;;;;;;;17.13;3.10;;;9.80;99.90;;;;;;4996055;28;20033;-82
2023/05/17 07:34:55;;;;;;;16.08;3.25;;;9.70;99.90;;;;;;4999477;28;20060;-81
2023/05/17 07:37:22;;;;;;;13.65;2.33;;;9.60;98.60;;;;;;4998579;28;20091;-81
2023/05/17 07:39:47;;;;;;;10.30;2.72;;;9.80;99.90;;;;;;4984182;28;20127;-82
2023/05/17 07:42:13;;;;;;;12.05;2.30;;;9.70;1.00;;;;;;4994410;28;20132;-81
2023/05/17 07:44:39;;;;;;;11.75;2.58;;;9.80;99.90;;;;;;4989126;28;20037;-81
2023/05/17 07:47:05;;;;;;;10.23;2.20;;;9.90;99.90;;;;;;4981322;28;20132;-82
2023/05/17 07:49:31;;;;;;;15.80;2.75;;;10.10;1.00;;;;;;4996594;28;20038;-81
2023/05/17 07:51:56;;;;;;;10.30;2.58;;;10.10;1.00;;;;;;4987963;28;20072;-82
2023/05/17 07:54:23;;;;;;;13.00;2.47;;;10.20;99.90;;;;;;5001207;28;20206;-81
2023/05/17 07:56:49;;;;;;;14.63;3.05;;;10.10;99.90;;;;;;5010473;28;20034;-81
2023/05/17 07:59:15;;;;;;;13.93;2.45;;;10.30;99.90;;;;;;5011631;28;20048;-82
2023/05/17 08:01:40;;;;;;;7.32;2.30;;;10.40;99.90;;;;;;4999030;28;20503;-82
2023/05/17 08:04:06;;;;;;;10.43;2.67;;;10.40;1.00;;;;;;5013920;28;20046;-82
2023/05/17 08:06:31;;;;;;;11.85;2.50;;;10.70;99.90;;;;;;5013694;28;20457;-81
2023/05/17 08:08:57;;;;;;;14.25;2.40;;;10.80;1.00;;;;;;4981625;28;20049;-81
2023/05/17 08:11:23;;;;;;;11.02;2.72;;;10.70;99.90;;;;;;4986751;28;20350;-82
2023/05/17 08:13:48;;;;;;;11.98;2.53;;;10.50;99.90;;;;;;5012225;28;20038;-82
2023/05/17 08:16:14;;;;;;;15.10;2.95;;;10.40;99.90;;;;;;5016310;28;20438;-81
2023/05/17 08:18:41;;;;;;;20.13;2.67;;;10.40;99.90;;;;;;4997553;28;20049;-82
2023/05/17 08:21:07;;;;;;;11.90;2.33;;;10.40;1.00;;;;;;4984222;28;20311;-81
2023/05/17 08:23:32;;;;;;;13.15;2.55;;;10.40;1.00;;;;;;5016572;28;20128;-82
2023/05/17 08:25:58;;;;;;;11.48;2.60;;;10.70;96.00;;;;;;4998357;28;20231;-82
2023/05/17 08:28:24;;;;;;;11.25;2.60;;;10.60;99.90;;;;;;4983635;28;20129;-81
2023/05/17 08:30:49;;;;;;;11.98;2.60;;;10.80;99.90;;;;;;4980612;28;20065;-81
2023/05/17 08:33:15;;;;;;;14.07;2.42;;;10.70;99.90;;;;;;5019226;28;20268;-82
2023/05/17 08:35:40;;;;;;;9.60;2.38;;;10.60;99.90;;;;;;5010763;28;20100;-82
2023/05/17 08:38:07;;;;;;;12.60;2.47;;;11.30;1.00;;;;;;4985392;28;20453;-81
2023/05/17 08:40:33;;;;;;;18.33;2.92;;;11.40;99.90;;;;;;4979515;28;20396;-82
2023/05/17 08:42:59;;;;;;;12.90;3.20;;;11.30;99.90;;;;;;5013655;28;20045;-82
2023/05/17 08:45:26;;;;;;;10.10;2.10;;;10.90;99.90;;;;;;5012880;28;20176;-82
2023/05/17 08:47:53;;;;;;;11.75;2.90;;;10.80;99.90;;;;;;4985548;28;20599;-82
2023/05/17 08:50:19;;;;;;;9.68;2.40;;;10.60;99.90;;;;;;4981336;28;20384;-82
2023/05/17 08:52:45;;;;;;;11.85;1.90;;;10.80;99.90;;;;;;4992792;28;20025;-82
2023/05/17 08:55:15;;;;;;;9.30;2.20;;;10.50;4.70;;;;;;4982216;28;20542;-81
2023/05/17 08:57:41;;;;;;;9.13;2.80;;;10.60;1.00;;;;;;4993689;28;20042;-82
2023/05/17 09:00:12;;;;;;;8.43;2.28;;;10.70;1.00;;;;;;4996319;28;20034;-81
2023/05/17 09:02:40;;;;;;;10.57;2.33;;;11.10;99.90;;;;;;5002661;28;20041;-82
2023/05/17 09:05:09;;;;;;;10.07;2.53;;;11.40;26.70;;;;;;4986802;28;20041;-82
2023/05/17 09:07:35;;;;;;;8.15;2.15;;;11.30;99.90;;;;;;5001305;28;20555;-83
2023/05/17 09:10:05;;;;;;;9.35;2.03;;;11.40;1.00;;;;;;5014637;28;20190;-83
2023/05/17 09:12:34;;;;;;;10.48;2.20;;;11.90;4.00;;;;;;4969179;28;20065;-82
2023/05/17 09:15:21;;;;;;;9.50;2.05;;;11.60;1.00;;;;;;4991354;28;20034;-81
2023/05/17 09:17:52;;;;;;;12.63;1.90;;;11.20;99.90;;;;;;4977394;28;20085;-82
2023/05/17 09:20:43;;;;;;;11.10;2.08;;;11.30;99.90;;;;;;4990818;28;20046;-82
2023/05/17 09:23:13;;;;;;;11.73;2.10;;;11.80;99.90;;;;;;4977840;28;20117;-82
2023/05/17 09:26:06;;;;;;;6.85;1.80;;;12.00;99.90;;;;;;4976607;28;20077;-83
2023/05/17 09:28:38;;;;;;;13.25;2.40;;;11.70;64.90;;;;;;4961796;28;20058;-82
2023/05/17 09:31:07;;;;;;;7.10;2.13;;;11.70;50.30;;;;;;4975541;28;20470;-81
2023/05/17 09:33:41;;;;;;;10.80;2.00;;;11.70;99.90;;;;;;4975134;28;20046;-82
2023/05/17 09:36:22;;;;;;;7.05;2.00;;;11.50;99.90;;;;;;4964433;28;20373;-82
2023/05/17 09:39:04;;;;;;;9.75;2.30;;;11.30;99.90;;;;;;4976290;28;20137;-83
2023/05/17 09:41:41;;;;;;;15.25;2.40;;;11.00;99.90;;;;;;4991823;28;20117;-82
2023/05/17 09:44:11;;;;;;;8.27;1.95;;;11.20;99.90;;;;;;4958482;28;20050;-82
2023/05/17 09:46:47;;;;;;;10.32;2.35;;;11.20;99.90;;;;;;4994011;28;20100;-81
2023/05/17 09:49:16;;;;;;;6.78;2.05;;;11.30;99.90;;;;;;4983022;28;20050;-82
2023/05/17 09:51:49;;;;;;;10.55;1.80;;;12.00;99.90;;;;;;4976838;28;20066;-82
2023/05/17 09:54:16;;;;;;;8.18;1.83;;;12.70;99.90;;;;;;4993221;28;20281;-82
2023/05/17 09:56:43;;;;;;;8.10;2.03;;;12.70;62.00;;;;;;4961620;28;20042;-83
2023/05/17 09:59:21;;;;;;;5.28;1.58;;;12.80;99.90;;;;;;4981094;28;20045;-82
2023/05/17 10:01:49;;;;;;;6.28;1.80;;;12.30;99.90;;;;;;4990593;28;20105;-82
2023/05/17 10:04:19;;;;;;;8.90;1.92;;;11.90;1.00;;;;;;4995471;28;20112;-82
2023/05/17 10:06:45;;;;;;;6.97;1.92;;;11.80;99.90;;;;;;4960002;28;20135;-83
2023/05/17 10:09:13;;;;;;;13.07;1.98;;;11.50;99.90;;;;;;4974644;28;20705;-82
2023/05/17 10:11:42;;;;;;;10.20;1.92;;;12.60;1.00;;;;;;4958176;28;20289;-82
2023/05/17 10:14:26;;;;;;;8.82;1.80;;;12.50;99.90;;;;;;4980154;28;20046;-83
2023/05/17 10:16:55;;;;;;;8.75;1.98;;;12.20;99.90;;;;;;4977718;28;20182;-82
2023/05/17 10:19:23;;;;;;;11.30;1.88;;;12.20;1.00;;;;;;4997225;28;20114;-82
2023/05/17 10:21:52;;;;;;;5.25;1.88;;;11.90;99.90;;;;;;4976131;28;20045;-83
2023/05/17 10:24:20;;;;;;;8.95;1.90;;;11.60;99.90;;;;;;4994961;28;20058;-83
2023/05/17 10:26:49;;;;;;;8.40;2.00;;;11.80;1.00;;;;;;4991678;28;20041;-82
2023/05/17 10:29:15;;;;;;;10.05;2.10;;;12.30;99.90;;;;;;4992020;28;20099;-82
2023/05/17 10:31:46;;;;;;;5.40;1.60;;;12.40;99.90;;;;;;4962707;28;20041;-83
2023/05/17 10:34:15;;;;;;;8.38;1.85;;;12.30;99.90;;;;;;4966104;28;20108;-83
2023/05/17 10:36:42;;;;;;;6.43;1.83;;;11.90;99.90;;;;;;4992762;28;20099;-82
2023/05/17 10:39:09;;;;;;;9.07;1.95;;;12.40;99.90;;;;;;4977006;28;20104;-83
2023/05/17 10:41:41;;;;;;;9.25;1.77;;;12.60;99.90;;;;;;4981363;28;20034;-82
2023/05/17 10:44:08;;;;;;;7.53;1.73;;;12.40;99.90;;;;;;4975904;28;20038;-82
2023/05/17 10:46:35;;;;;;;7.43;1.73;;;12.00;99.90;;;;;;4976127;28;20085;-82
2023/05/17 10:49:02;;;;;;;4.72;1.60;;;12.90;99.90;;;;;;4959135;28;20543;-82
2023/05/17 10:51:37;;;;;;;9.15;1.70;;;12.60;99.90;;;;;;4973903;28;20398;-83
2023/05/17 10:54:20;;;;;;;5.13;1.60;;;12.10;99.90;;;;;;4994138;28;20079;-83
2023/05/17 10:56:51;;;;;;;8.50;1.65;;;12.30;99.90;;;;;;4989085;28;20429;-82
2023/05/17 10:59:28;;;;;;;7.30;1.70;;;11.80;99.90;;;;;;4983750;28;20294;-82
2023/05/17 11:02:02;;;;;;;7.43;2.30;;;12.10;99.90;;;;;;4981591;28;20038;-83
2023/05/17 11:04:35;;;;;;;8.95;2.17;;;12.00;99.90;;;;;;4979181;28;20514;-83
2023/05/17 11:07:16;;;;;;;7.55;1.92;;;12.70;99.90;;;;;;4996128;28;20044;-82
2023/05/17 11:09:43;;;;;;;7.00;1.75;;;12.40;99.90;;;;;;4994222;28;20043;-83
2023/05/17 11:12:10;;;;;;;7.03;1.90;;;12.60;99.90;;;;;;4980448;28;20062;-82
2023/05/17 11:14:50;;;;;;;6.70;2.08;;;12.50;99.90;;;;;;5012052;28;20064;-83
2023/05/17 11:17:19;;;;;;;6.82;2.00;;;12.40;99.90;;;;;;4993533;28;20069;-83
2023/05/17 11:19:57;;;;;;;9.88;2.60;;;11.50;99.90;;;;;;4999559;28;20045;-83
2023/05/17 11:22:24;;;;;;;9.02;2.15;;;11.90;99.90;;;;;;5008606;28;20091;-82
2023/05/17 11:24:52;;;;;;;7.32;1.90;;;12.50;1.00;;;;;;5010349;28;20385;-83
2023/05/17 11:27:19;;;;;;;12.32;2.42;;;12.80;99.90;;;;;;5008967;28;20050;-82
2023/05/17 11:29:49;;;;;;;14.50;2.72;;;13.20;99.90;;;;;;4982693;28;20058;-82
2023/05/17 11:32:15;;;;;;;9.13;2.58;;;13.40;1.00;;;;;;4991110;28;20441;-82
2023/05/17 11:34:40;;;;;;;9.55;2.10;;;12.90;99.90;;;;;;4997870;28;20088;-83
2023/05/17 11:37:10;;;;;;;10.00;2.25;;;12.40;99.90;;;;;;4993853;28;20664;-83
2023/05/17 11:39:36;;;;;;;6.25;2.10;;;11.90;99.90;;;;;;4983091;28;20041;-83
2023/05/17 11:42:02;;;;;;;7.95;2.17;;;11.80;99.90;;;;;;4991962;28;20445;-83
2023/05/17 11:44:35;;;;;;;9.98;2.35;;;11.80;99.90;;;;;;4998142;28;20041;-83
2023/05/17 11:47:05;;;;;;;7.93;1.98;;;11.90;99.90;;;;;;5002508;28;20033;-82
2023/05/17 11:49:32;;;;;;;8.50;2.10;;;12.80;99.90;;;;;;4996471;28;20038;-82
2023/05/17 11:51:58;;;;;;;12.60;2.00;;;13.70;99.90;;;;;;4975239;28;20045;-83
2023/05/17 11:54:24;;;;;;;7.78;2.53;;;13.00;99.90;;;;;;4990372;28;20465;-84
2023/05/17 11:56:52;;;;;;;11.55;2.25;;;12.30;99.90;;;;;;4993018;28;20038;-83
2023/05/17 11:59:19;;;;;;;8.63;2.17;;;12.20;99.90;;;;;;4976401;28;20057;-85
2023/05/17 12:01:46;;;;;;;7.30;2.00;;;12.60;99.90;;;;;;4992172;28;20129;-83
2023/05/17 12:04:12;;;;;;;7.55;2.13;;;13.10;99.90;;;;;;5000862;28;20057;-82
2023/05/17 12:06:38;;;;;;;8.35;2.08;;;12.90;99.90;;;;;;4977122;28;20100;-82
2023/05/17 12:09:09;;;;;;;8.02;2.25;;;13.40;99.90;;;;;;4984058;28;20049;-82
2023/05/17 12:11:35;;;;;;;11.15;2.22;;;12.90;99.90;;;;;;4996633;28;20370;-82
2023/05/17 12:14:01;;;;;;;10.85;1.85;;;13.30;99.90;;;;;;5002219;28;20092;-83
2023/05/17 12:16:29;;;;;;;9.98;2.20;;;12.90;99.90;;;;;;5001107;28;20042;-83
2023/05/17 12:18:57;;;;;;;11.45;2.30;;;12.00;99.90;;;;;;5020408;28;20051;-83
2023/05/17 12:21:25;;;;;;;9.00;2.35;;;12.90;99.90;;;;;;4999185;28;20481;-82
2023/05/17 12:23:51;;;;;;;5.85;1.85;;;13.40;99.90;;;;;;5013495;28;20459;-83
2023/05/17 12:26:20;;;;;;;7.00;2.20;;;13.30;99.90;;;;;;4998303;28;20500;-82
2023/05/17 12:28:57;;;;;;;12.40;2.55;;;13.00;99.90;;;;;;4997159;28;20057;-83
2023/05/17 12:31:35;;;;;;;10.40;2.20;;;12.30;99.90;;;;;;4984957;28;20476;-83
2023/05/17 12:34:01;;;;;;;10.15;2.47;;;12.90;99.90;;;;;;4982477;28;20130;-83
2023/05/17 12:36:28;;;;;;;9.98;2.05;;;13.00;99.90;;;;;;4981158;28;20048;-83
2023/05/17 12:38:55;;;;;;;11.15;2.00;;;13.00;99.90;;;;;;4984483;28;20045;-83
2023/05/17 12:41:22;;;;;;;7.47;2.20;;;13.60;99.90;;;;;;4994774;28;20041;-83
2023/05/17 12:43:51;;;;;;;6.68;2.00;;;13.80;99.90;;;;;;5014392;28;20425;-82
2023/05/17 12:46:19;;;;;;;11.15;2.15;;;13.10;99.90;;;;;;4984158;28;20042;-83
2023/05/17 12:48:46;;;;;;;8.23;2.15;;;13.10;88.90;;;;;;4998873;28;20044;-82
2023/05/17 12:51:22;;;;;;;8.80;2.05;;;13.90;99.90;;;;;;4977298;28;20197;-83